createdAt,value
2017-06-29T00:01:48.505Z,24.10
2017-06-29T00:04:14.532Z,24.33
2017-06-29T00:06:40.576Z,24.00
2017-06-29T00:09:06.745Z,29.23
2017-06-29T00:11:32.768Z,23.53
2017-06-29T00:13:58.792Z,25.43
2017-06-29T00:16:24.826Z,29.10
2017-06-29T00:18:51.617Z,25.40
2017-06-29T00:21:17.657Z,26.40
2017-06-29T00:23:43.701Z,21.10
2017-06-29T00:26:09.732Z,21.20
2017-06-29T00:28:35.776Z,23.53
2017-06-29T00:31:01.812Z,26.13
2017-06-29T00:33:27.817Z,22.67
2017-06-29T00:35:54.592Z,27.93
2017-06-29T00:38:20.632Z,24.23
2017-06-29T00:40:46.660Z,29.13
2017-06-29T00:43:13.441Z,31.23
2017-06-29T00:45:39.473Z,25.13
2017-06-29T00:48:05.525Z,27.63
2017-06-29T00:50:31.607Z,29.43
2017-06-29T00:53:04.680Z,32.77
2017-06-29T00:55:30.718Z,26.57
2017-06-29T00:57:56.775Z,28.47
2017-06-29T01:00:22.808Z,32.20
2017-06-29T01:02:48.869Z,25.30
2017-06-29T01:05:14.925Z,31.83
2017-06-29T01:07:41.736Z,32.60
2017-06-29T01:10:07.893Z,32.27
2017-06-29T01:12:33.945Z,29.13
2017-06-29T01:14:59.960Z,26.07
2017-06-29T01:17:25.973Z,31.03
2017-06-29T01:19:52.015Z,27.83
2017-06-29T01:22:18.012Z,29.20
2017-06-29T01:24:44.813Z,28.03
2017-06-29T01:27:10.873Z,37.77
2017-06-29T01:29:44.025Z,34.73
2017-06-29T01:32:10.804Z,29.27
2017-06-29T01:34:36.866Z,36.83
2017-06-29T01:37:03.637Z,40.00
2017-06-29T01:39:29.701Z,38.93
2017-06-29T01:41:55.752Z,40.97
2017-06-29T01:44:21.778Z,34.60
2017-06-29T01:46:47.866Z,34.50
2017-06-29T01:49:13.917Z,40.80
2017-06-29T01:51:40.722Z,41.80
2017-06-29T01:54:06.749Z,45.17
2017-06-29T01:56:33.619Z,44.00
2017-06-29T01:58:59.649Z,39.97
2017-06-29T02:01:25.692Z,48.83
2017-06-29T02:03:51.729Z,42.20
2017-06-29T02:06:17.749Z,46.97
2017-06-29T02:08:43.806Z,44.30
2017-06-29T02:11:09.854Z,50.67
2017-06-29T02:13:35.858Z,43.53
2017-06-29T02:16:02.626Z,41.37
2017-06-29T02:18:28.672Z,47.03
2017-06-29T02:20:54.715Z,47.83
2017-06-29T02:23:20.729Z,45.17
2017-06-29T02:25:46.753Z,44.70
2017-06-29T02:28:12.805Z,47.67
2017-06-29T02:30:38.841Z,43.90
2017-06-29T02:33:04.868Z,49.37
2017-06-29T02:35:30.900Z,54.07
2017-06-29T02:37:56.924Z,55.03
2017-06-29T02:40:22.937Z,52.37
2017-06-29T02:42:48.981Z,45.30
2017-06-29T02:45:15.019Z,49.30
2017-06-29T02:47:41.097Z,45.47
2017-06-29T02:50:07.873Z,50.17
2017-06-29T02:52:33.904Z,50.20
2017-06-29T02:54:59.936Z,49.70
2017-06-29T02:57:26.713Z,57.13
2017-06-29T02:59:52.712Z,47.13
2017-06-29T03:02:18.748Z,53.53
2017-06-29T03:04:44.785Z,57.00
2017-06-29T03:07:11.550Z,61.37
2017-06-29T03:09:37.585Z,71.13
2017-06-29T03:12:03.665Z,63.77
2017-06-29T03:14:29.677Z,60.87
2017-06-29T03:16:55.742Z,66.27
2017-06-29T03:19:22.533Z,64.27
2017-06-29T03:21:48.528Z,60.37
2017-06-29T03:24:14.553Z,65.87
2017-06-29T03:26:40.597Z,58.63
2017-06-29T03:29:06.648Z,59.63
2017-06-29T03:31:32.692Z,66.03
2017-06-29T03:33:58.762Z,63.63
2017-06-29T03:36:24.809Z,58.67
2017-06-29T03:38:50.866Z,61.00
2017-06-29T03:41:16.881Z,60.73
2017-06-29T03:43:42.945Z,63.10
2017-06-29T03:46:09.013Z,59.37
2017-06-29T03:48:35.137Z,73.37
2017-06-29T03:51:01.173Z,64.30
2017-06-29T03:53:27.193Z,60.10
2017-06-29T03:55:53.977Z,67.37
2017-06-29T03:58:20.023Z,65.87
2017-06-29T04:00:46.074Z,62.07
2017-06-29T04:03:12.116Z,65.53
2017-06-29T04:05:38.165Z,64.80
2017-06-29T04:08:04.921Z,61.40
2017-06-29T04:10:30.953Z,60.07
2017-06-29T04:12:56.968Z,70.47
2017-06-29T04:15:23.029Z,62.97
2017-06-29T04:17:49.087Z,61.63
2017-06-29T04:20:15.119Z,65.23
2017-06-29T04:22:41.889Z,61.73
2017-06-29T04:25:07.961Z,59.83
2017-06-29T04:27:34.725Z,60.40
2017-06-29T04:30:00.743Z,65.93
2017-06-29T04:32:26.766Z,71.37
2017-06-29T04:34:52.805Z,55.33
2017-06-29T04:37:18.843Z,64.57
2017-06-29T04:39:44.983Z,65.60
2017-06-29T04:42:11.050Z,66.33
2017-06-29T04:44:37.069Z,69.23
2017-06-29T04:47:03.865Z,56.87
2017-06-29T04:49:29.897Z,61.27
2017-06-29T04:51:55.929Z,70.10
2017-06-29T04:54:21.944Z,64.87
2017-06-29T04:56:48.130Z,63.00
2017-06-29T04:59:14.169Z,66.27
2017-06-29T05:01:40.201Z,69.23
2017-06-29T05:04:06.262Z,61.90
2017-06-29T05:06:32.318Z,66.97
2017-06-29T05:08:58.348Z,71.23
2017-06-29T05:11:24.393Z,68.53
2017-06-29T05:13:50.487Z,74.53
2017-06-29T05:16:16.545Z,75.20
2017-06-29T05:18:42.561Z,64.30
2017-06-29T05:21:08.593Z,64.23
2017-06-29T05:23:36.858Z,64.10
2017-06-29T05:26:02.931Z,71.37
2017-06-29T05:28:28.995Z,73.43
2017-06-29T05:30:55.027Z,70.27
2017-06-29T05:33:21.057Z,68.10
2017-06-29T05:35:47.113Z,66.93
2017-06-29T05:38:13.151Z,69.00
2017-06-29T05:40:39.192Z,75.57
2017-06-29T05:43:05.237Z,69.17
2017-06-29T05:45:32.000Z,79.60
2017-06-29T05:47:58.060Z,71.53
2017-06-29T05:50:24.165Z,65.00
2017-06-29T05:52:50.960Z,64.83
2017-06-29T05:55:16.988Z,60.40
2017-06-29T05:57:43.030Z,59.97
2017-06-29T06:00:09.816Z,70.20
2017-06-29T06:02:35.850Z,60.30
2017-06-29T06:05:01.897Z,56.30
2017-06-29T06:07:27.932Z,55.70
2017-06-29T06:09:53.993Z,53.90
2017-06-29T06:12:20.779Z,54.23
2017-06-29T06:14:46.848Z,59.47
2017-06-29T06:17:12.877Z,58.63
2017-06-29T06:19:40.408Z,47.70
2017-06-29T06:22:06.449Z,51.27
2017-06-29T06:24:32.506Z,44.43
2017-06-29T06:26:59.273Z,51.13
2017-06-29T06:29:25.302Z,41.03
2017-06-29T06:31:51.342Z,45.03
2017-06-29T06:34:18.113Z,38.33
2017-06-29T06:36:44.149Z,44.50
2017-06-29T06:39:10.173Z,48.73
2017-06-29T06:41:36.939Z,35.23
2017-06-29T06:44:02.983Z,40.20
2017-06-29T06:46:29.009Z,33.43
2017-06-29T06:48:55.034Z,32.60
2017-06-29T06:51:21.804Z,31.03
2017-06-29T06:53:47.837Z,38.83
2017-06-29T06:56:13.868Z,30.33
2017-06-29T06:58:40.666Z,35.60
2017-06-29T07:01:06.693Z,27.93
2017-06-29T07:03:32.722Z,31.60
2017-06-29T07:05:58.793Z,27.43
2017-06-29T07:08:24.833Z,29.30
2017-06-29T07:10:51.605Z,31.93
2017-06-29T07:13:17.628Z,28.10
2017-06-29T07:15:43.674Z,30.20
2017-06-29T07:18:10.461Z,29.03
2017-06-29T07:20:36.520Z,28.30
2017-06-29T07:23:02.565Z,34.23
2017-06-29T07:25:28.593Z,27.90
2017-06-29T07:27:54.625Z,25.53
2017-06-29T07:30:21.409Z,33.30
2017-06-29T07:32:47.449Z,25.10
2017-06-29T07:35:13.521Z,24.23
2017-06-29T07:37:39.580Z,25.70
2017-06-29T07:40:06.372Z,33.37
2017-06-29T07:42:32.428Z,19.10
2017-06-29T07:44:59.232Z,18.03
2017-06-29T07:47:25.356Z,18.20
2017-06-29T07:49:51.392Z,23.07
2017-06-29T07:52:17.429Z,21.60
2017-06-29T07:54:43.480Z,25.90
2017-06-29T07:57:10.265Z,21.97
2017-06-29T07:59:36.316Z,22.50
2017-06-29T08:02:02.369Z,23.03
2017-06-29T08:04:28.407Z,26.27
2017-06-29T08:06:54.425Z,23.70
2017-06-29T08:09:20.468Z,25.07
2017-06-29T08:11:47.240Z,22.43
2017-06-29T08:14:13.289Z,23.37
2017-06-29T08:16:39.313Z,18.60
2017-06-29T08:19:06.077Z,24.37
2017-06-29T08:21:32.108Z,23.93
2017-06-29T08:23:58.132Z,26.50
2017-06-29T08:26:24.184Z,24.43
2017-06-29T08:28:50.237Z,29.73
2017-06-29T08:31:16.271Z,28.90
2017-06-29T08:33:43.063Z,22.17
2017-06-29T08:36:09.089Z,23.03
2017-06-29T08:38:35.148Z,21.70
2017-06-29T08:41:01.192Z,27.13
2017-06-29T08:43:27.220Z,22.70
2017-06-29T08:45:54.005Z,23.23
2017-06-29T08:48:20.104Z,27.30
2017-06-29T08:50:46.136Z,23.37
2017-06-29T08:53:12.150Z,28.47
2017-06-29T08:55:38.196Z,21.80
2017-06-29T08:58:04.984Z,24.87
2017-06-29T09:00:31.020Z,18.97
2017-06-29T09:02:57.041Z,19.67
2017-06-29T09:05:23.804Z,27.57
2017-06-29T09:07:49.825Z,20.43
2017-06-29T09:10:15.872Z,15.07
2017-06-29T09:12:41.905Z,18.03
2017-06-29T09:15:07.933Z,21.17
2017-06-29T09:17:33.977Z,20.57
2017-06-29T09:20:00.004Z,16.70
2017-06-29T09:22:26.029Z,17.93
2017-06-29T09:24:52.793Z,26.27
2017-06-29T09:27:18.876Z,20.60
2017-06-29T09:29:52.000Z,19.33
2017-06-29T09:32:18.024Z,20.00
2017-06-29T09:34:44.052Z,16.40
2017-06-29T09:37:10.849Z,23.97
2017-06-29T09:39:36.874Z,14.67
2017-06-29T09:42:03.653Z,13.10
2017-06-29T09:44:29.712Z,17.00
2017-06-29T09:46:55.775Z,14.13
2017-06-29T09:49:21.823Z,10.70
2017-06-29T09:51:48.633Z,14.60
2017-06-29T09:54:14.667Z,11.10
2017-06-29T09:56:40.818Z,15.70
2017-06-29T09:59:06.935Z,13.30
2017-06-29T10:01:32.968Z,12.87
2017-06-29T10:03:58.996Z,14.80
2017-06-29T10:06:25.786Z,13.40
2017-06-29T10:08:51.813Z,15.57
2017-06-29T10:11:17.856Z,9.73
2017-06-29T10:13:44.625Z,12.33
2017-06-29T10:16:10.701Z,15.17
2017-06-29T10:18:36.839Z,11.60
2017-06-29T10:21:02.885Z,14.23
2017-06-29T10:23:28.988Z,14.00
2017-06-29T10:25:55.021Z,9.90
2017-06-29T10:28:21.069Z,8.30
2017-06-29T10:30:47.125Z,15.93
2017-06-29T10:33:13.186Z,9.37
2017-06-29T10:35:39.849Z,19.07
2017-06-29T10:38:05.994Z,9.37
2017-06-29T10:40:32.780Z,5.77
2017-06-29T10:42:58.844Z,6.17
2017-06-29T10:45:24.864Z,10.43
2017-06-29T10:47:50.929Z,7.60
2017-06-29T10:50:17.713Z,9.53
2017-06-29T10:52:43.756Z,8.63
2017-06-29T10:55:09.781Z,11.53
2017-06-29T10:57:36.561Z,10.83
2017-06-29T11:00:02.631Z,11.17
2017-06-29T11:02:28.673Z,7.00
2017-06-29T11:04:54.760Z,9.87
2017-06-29T11:07:21.002Z,12.00
2017-06-29T11:09:47.929Z,9.03
2017-06-29T11:12:13.965Z,8.63
2017-06-29T11:14:39.988Z,7.77
2017-06-29T11:17:06.013Z,8.00
2017-06-29T11:19:32.793Z,8.07
2017-06-29T11:21:58.824Z,11.90
2017-06-29T11:24:24.851Z,14.93
2017-06-29T11:26:51.620Z,13.60
2017-06-29T11:29:17.672Z,13.10
2017-06-29T11:31:43.730Z,10.30
2017-06-29T11:34:09.839Z,12.63
2017-06-29T11:36:35.880Z,16.70
2017-06-29T11:39:01.949Z,20.37
2017-06-29T11:41:27.997Z,13.40
2017-06-29T11:43:54.033Z,16.10
2017-06-29T11:46:20.149Z,12.40
2017-06-29T11:48:46.173Z,12.27
2017-06-29T11:51:12.939Z,15.13
2017-06-29T11:53:38.989Z,12.60
2017-06-29T11:56:05.757Z,12.17
2017-06-29T11:58:31.794Z,13.10
2017-06-29T12:00:57.856Z,13.33
2017-06-29T12:03:23.888Z,13.37
2017-06-29T12:05:49.949Z,12.50
2017-06-29T12:08:15.965Z,12.37
2017-06-29T12:10:41.984Z,12.67
2017-06-29T12:13:08.760Z,13.83
2017-06-29T12:15:34.823Z,15.33
2017-06-29T12:18:00.875Z,10.13
2017-06-29T12:20:26.938Z,10.43
2017-06-29T12:22:53.057Z,8.13
2017-06-29T12:25:19.142Z,8.90
2017-06-29T12:27:45.157Z,9.23
2017-06-29T12:30:11.960Z,12.83
2017-06-29T12:32:38.005Z,12.13
2017-06-29T12:35:04.781Z,11.80
2017-06-29T12:37:30.833Z,9.10
2017-06-29T12:39:57.640Z,9.70
2017-06-29T12:42:23.673Z,9.13
2017-06-29T12:44:49.689Z,9.70
2017-06-29T12:47:15.789Z,9.47
2017-06-29T12:49:42.557Z,10.20
2017-06-29T12:52:08.589Z,12.27
2017-06-29T12:54:34.649Z,13.17
2017-06-29T12:57:00.726Z,11.50
2017-06-29T12:59:27.497Z,10.30
2017-06-29T13:01:53.528Z,8.23
2017-06-29T13:04:19.589Z,9.70
2017-06-29T13:06:45.653Z,8.90
2017-06-29T13:09:11.684Z,7.90
2017-06-29T13:11:37.709Z,5.60
2017-06-29T13:14:04.497Z,6.53
2017-06-29T13:16:30.570Z,5.37
2017-06-29T13:18:56.625Z,4.47
2017-06-29T13:21:22.653Z,11.27
2017-06-29T13:23:48.689Z,11.37
2017-06-29T13:26:14.741Z,5.33
2017-06-29T13:28:40.793Z,6.40
2017-06-29T13:31:07.565Z,7.33
2017-06-29T13:33:33.628Z,5.90
2017-06-29T13:35:59.665Z,10.70
2017-06-29T13:38:25.745Z,7.83
2017-06-29T13:40:51.784Z,9.43
2017-06-29T13:43:17.824Z,6.40
2017-06-29T13:45:43.864Z,5.70
2017-06-29T13:48:10.664Z,6.43
2017-06-29T13:50:36.706Z,7.37
2017-06-29T13:53:03.465Z,5.67
2017-06-29T13:55:29.556Z,8.83
2017-06-29T13:57:55.580Z,11.70
2017-06-29T14:00:21.607Z,8.10
2017-06-29T14:02:47.644Z,10.20
2017-06-29T14:05:13.666Z,12.20
2017-06-29T14:07:40.459Z,8.70
2017-06-29T14:10:06.517Z,6.40
2017-06-29T14:12:32.556Z,5.70
2017-06-29T14:14:58.585Z,7.07
2017-06-29T14:17:24.643Z,6.30
2017-06-29T14:19:50.707Z,7.53
2017-06-29T14:22:16.764Z,6.30
2017-06-29T14:24:42.785Z,6.20
2017-06-29T14:27:08.843Z,11.07
2017-06-29T14:29:34.872Z,8.03
2017-06-29T14:32:01.645Z,7.20
2017-06-29T14:34:27.701Z,9.43
2017-06-29T14:36:54.504Z,8.63
2017-06-29T14:39:20.568Z,9.33
2017-06-29T14:41:46.593Z,8.90
2017-06-29T14:44:12.632Z,8.63
2017-06-29T14:46:38.676Z,7.93
2017-06-29T14:49:05.453Z,8.73
2017-06-29T14:51:31.488Z,10.93
2017-06-29T14:53:57.528Z,9.00
2017-06-29T14:56:23.568Z,9.30
2017-06-29T14:58:49.617Z,8.77
2017-06-29T15:01:15.659Z,10.03
2017-06-29T15:03:41.684Z,16.50
2017-06-29T15:06:07.706Z,10.47
2017-06-29T15:08:33.732Z,10.90
2017-06-29T15:10:59.785Z,11.40
2017-06-29T15:13:26.564Z,13.60
2017-06-29T15:15:52.641Z,13.30
2017-06-29T15:18:18.681Z,13.57
2017-06-29T15:20:44.741Z,18.87
2017-06-29T15:23:10.812Z,14.07
2017-06-29T15:25:36.832Z,15.13
2017-06-29T15:28:03.004Z,13.60
2017-06-29T15:30:29.057Z,15.87
2017-06-29T15:32:55.116Z,16.17
2017-06-29T15:35:21.177Z,20.83
2017-06-29T15:37:47.964Z,11.17
2017-06-29T15:40:14.001Z,12.93
2017-06-29T15:42:40.035Z,15.87
2017-06-29T15:45:06.093Z,22.40
2017-06-29T15:47:32.145Z,17.90
2017-06-29T15:49:58.933Z,14.90
2017-06-29T15:52:24.960Z,14.57
2017-06-29T15:54:51.016Z,14.80
2017-06-29T15:57:17.072Z,13.70
2017-06-29T15:59:43.132Z,14.20
2017-06-29T16:02:09.177Z,12.90
2017-06-29T16:04:35.224Z,14.03
2017-06-29T16:07:02.053Z,17.90
2017-06-29T16:09:28.845Z,14.83
2017-06-29T16:11:54.904Z,12.97
2017-06-29T16:14:20.973Z,13.03
2017-06-29T16:16:47.024Z,15.40
2017-06-29T16:19:13.056Z,14.73
2017-06-29T16:21:39.121Z,14.93
2017-06-29T16:24:05.280Z,16.43
2017-06-29T16:26:31.317Z,18.27
2017-06-29T16:28:57.417Z,16.47
2017-06-29T16:31:23.469Z,16.53
2017-06-29T16:33:50.280Z,16.77
2017-06-29T16:36:16.308Z,16.97
2017-06-29T16:38:42.396Z,15.87
2017-06-29T16:41:08.429Z,25.80
2017-06-29T16:43:34.484Z,19.80
2017-06-29T16:46:00.513Z,28.50
2017-06-29T16:48:26.574Z,36.33
2017-06-29T16:50:52.600Z,24.43
2017-06-29T16:53:18.636Z,32.40
2017-06-29T16:55:44.694Z,23.47
2017-06-29T16:58:10.741Z,25.50
2017-06-29T17:00:36.789Z,27.17
2017-06-29T17:03:02.835Z,27.27
2017-06-29T17:05:28.873Z,26.47
2017-06-29T17:07:54.910Z,29.97
2017-06-29T17:10:21.688Z,34.07
2017-06-29T17:12:47.717Z,29.10
2017-06-29T17:15:13.773Z,36.73
2017-06-29T17:17:39.876Z,38.67
2017-06-29T17:20:05.962Z,33.57
2017-06-29T17:22:32.757Z,41.20
2017-06-29T17:24:58.833Z,34.70
2017-06-29T17:27:24.925Z,40.50
2017-06-29T17:29:51.723Z,39.00
2017-06-29T17:32:17.761Z,47.37
2017-06-29T17:34:43.836Z,47.00
2017-06-29T17:37:09.868Z,40.20
2017-06-29T17:39:35.932Z,35.63
2017-06-29T17:42:01.965Z,38.30
2017-06-29T17:44:28.014Z,37.27
2017-06-29T17:46:54.064Z,43.00
2017-06-29T17:49:20.094Z,41.53
2017-06-29T17:51:46.145Z,44.83
2017-06-29T17:54:12.180Z,36.80
2017-06-29T17:56:38.261Z,40.60
2017-06-29T17:59:05.072Z,42.70
2017-06-29T18:01:31.104Z,44.73
2017-06-29T18:03:57.129Z,45.07
2017-06-29T18:06:23.173Z,39.60
2017-06-29T18:08:49.229Z,42.87
2017-06-29T18:11:15.256Z,42.63
2017-06-29T18:13:41.285Z,41.80
2017-06-29T18:16:07.343Z,47.23
2017-06-29T18:18:33.376Z,53.83
2017-06-29T18:20:59.421Z,44.77
2017-06-29T18:23:25.489Z,42.70
2017-06-29T18:25:51.529Z,40.50
2017-06-29T18:28:24.540Z,47.30
2017-06-29T18:30:51.340Z,42.77
2017-06-29T18:33:17.381Z,33.80
2017-06-29T18:35:44.147Z,40.90
2017-06-29T18:38:10.200Z,42.60
2017-06-29T18:40:36.230Z,40.77
2017-06-29T18:43:03.000Z,39.20
2017-06-29T18:45:29.021Z,48.53
2017-06-29T18:47:55.060Z,48.17
2017-06-29T18:50:21.853Z,48.60
2017-06-29T18:52:47.919Z,46.03
2017-06-29T18:55:13.961Z,42.83
2017-06-29T18:57:40.021Z,38.37
2017-06-29T19:00:06.115Z,45.63
2017-06-29T19:02:32.905Z,40.90
2017-06-29T19:04:58.956Z,40.87
2017-06-29T19:07:25.729Z,35.70
2017-06-29T19:09:51.809Z,40.70
2017-06-29T19:12:18.600Z,32.30
2017-06-29T19:14:44.645Z,33.33
2017-06-29T19:17:10.693Z,31.00
2017-06-29T19:19:36.720Z,29.07
2017-06-29T19:22:02.839Z,36.83
2017-06-29T19:24:28.891Z,30.43
2017-06-29T19:27:01.829Z,33.77
2017-06-29T19:29:27.886Z,27.13
2017-06-29T19:31:53.926Z,37.27
2017-06-29T19:34:19.950Z,34.27
2017-06-29T19:36:46.084Z,35.53
2017-06-29T19:39:12.877Z,29.53
2017-06-29T19:41:39.028Z,32.77
2017-06-29T19:44:05.153Z,33.27
2017-06-29T19:46:32.428Z,28.43
2017-06-29T19:48:59.170Z,29.37
2017-06-29T19:51:25.425Z,25.10
2017-06-29T19:53:51.532Z,26.57
2017-06-29T19:56:17.554Z,21.17
2017-06-29T19:58:43.664Z,22.30
2017-06-29T20:01:09.820Z,32.10
2017-06-29T20:03:35.976Z,27.70
2017-06-29T20:06:02.134Z,27.30
2017-06-29T20:08:28.359Z,24.57
2017-06-29T20:10:54.435Z,20.70
2017-06-29T20:13:20.502Z,25.10
2017-06-29T20:15:47.285Z,18.37
2017-06-29T20:18:13.328Z,20.93
2017-06-29T20:20:40.120Z,18.47
2017-06-29T20:23:06.174Z,13.90
2017-06-29T20:25:32.948Z,12.70
2017-06-29T20:27:59.005Z,13.00
2017-06-29T20:30:25.044Z,13.50
2017-06-29T20:32:51.090Z,11.60
2017-06-29T20:35:32.149Z,13.93
2017-06-29T20:37:58.201Z,9.50
2017-06-29T20:40:24.237Z,8.67
2017-06-29T20:42:50.267Z,8.70
2017-06-29T20:45:16.310Z,8.97
2017-06-29T20:47:43.104Z,11.80
2017-06-29T20:50:09.136Z,7.10
2017-06-29T20:52:35.200Z,8.77
2017-06-29T20:55:01.233Z,7.57
2017-06-29T20:57:27.282Z,8.90
2017-06-29T20:59:53.309Z,10.07
2017-06-29T21:02:19.352Z,9.20
2017-06-29T21:04:45.405Z,9.73
2017-06-29T21:07:12.193Z,9.37
2017-06-29T21:09:38.221Z,9.00
2017-06-29T21:12:04.243Z,10.20
2017-06-29T21:14:31.020Z,9.40
2017-06-29T21:16:57.054Z,10.30
2017-06-29T21:19:23.112Z,10.83
2017-06-29T21:21:49.157Z,10.73
2017-06-29T21:24:15.206Z,11.60
2017-06-29T21:26:41.981Z,14.27
2017-06-29T21:29:08.043Z,11.07
2017-06-29T21:31:34.832Z,13.03
2017-06-29T21:34:00.880Z,11.10
2017-06-29T21:36:27.713Z,11.43
2017-06-29T21:38:54.503Z,10.00
2017-06-29T21:41:20.565Z,10.40
2017-06-29T21:43:47.097Z,9.53
2017-06-29T21:46:13.153Z,8.37
2017-06-29T21:48:39.189Z,9.00
2017-06-29T21:51:05.988Z,7.90
2017-06-29T21:53:32.018Z,7.10
2017-06-29T21:55:59.802Z,7.70
2017-06-29T21:58:25.850Z,7.13
2017-06-29T22:00:51.893Z,7.57
2017-06-29T22:03:17.943Z,8.60
2017-06-29T22:05:43.976Z,10.53
2017-06-29T22:08:10.014Z,7.60
2017-06-29T22:10:36.042Z,8.50
2017-06-29T22:13:02.145Z,9.10
2017-06-29T22:15:28.188Z,8.47
2017-06-29T22:17:54.633Z,7.30
2017-06-29T22:20:20.668Z,8.10
2017-06-29T22:22:47.479Z,8.53
2017-06-29T22:25:13.533Z,8.40
2017-06-29T22:27:39.572Z,8.43
2017-06-29T22:30:05.613Z,9.20
2017-06-29T22:32:32.389Z,8.73
2017-06-29T22:34:58.440Z,10.73
2017-06-29T22:37:25.213Z,24.30
2017-06-29T22:39:51.274Z,10.90
2017-06-29T22:42:17.305Z,10.27
2017-06-29T22:44:43.337Z,15.83
2017-06-29T22:47:09.401Z,12.17
2017-06-29T22:49:35.470Z,13.60
2017-06-29T22:52:01.500Z,11.50
2017-06-29T22:54:27.520Z,13.63
2017-06-29T22:56:53.573Z,15.97
2017-06-29T22:59:19.592Z,14.43
2017-06-29T23:01:45.624Z,15.63
2017-06-29T23:04:11.718Z,18.10
2017-06-29T23:06:37.757Z,16.13
2017-06-29T23:09:03.821Z,18.90
2017-06-29T23:11:29.845Z,19.57
2017-06-29T23:13:55.868Z,19.47
2017-06-29T23:16:21.896Z,18.53
2017-06-29T23:18:47.929Z,19.80
2017-06-29T23:21:14.689Z,24.17
2017-06-29T23:23:40.753Z,26.70
2017-06-29T23:26:06.771Z,22.80
2017-06-29T23:28:33.540Z,29.57
2017-06-29T23:30:59.602Z,30.90
2017-06-29T23:33:25.665Z,28.40
2017-06-29T23:35:51.684Z,29.40
2017-06-29T23:38:17.704Z,29.13
2017-06-29T23:40:43.732Z,31.53
2017-06-29T23:43:09.777Z,38.33
2017-06-29T23:45:35.849Z,35.80
2017-06-29T23:48:01.917Z,38.03
2017-06-29T23:50:28.074Z,34.30
2017-06-29T23:52:54.113Z,33.87
2017-06-29T23:55:20.127Z,37.80
2017-06-29T23:57:46.165Z,42.30
